sensor_id;sensor_type;location;lat;lon;timestamp;temperature;humidity
72338;DHT22;60294;64.134;-21.862;2023-04-19T00:00:40;9.60;88.60
72338;DHT22;60294;64.134;-21.862;2023-04-19T00:03:08;9.60;88.70
72338;DHT22;60294;64.134;-21.862;2023-04-19T00:05:35;9.60;88.60
72338;DHT22;60294;64.134;-21.862;2023-04-19T00:08:03;9.60;88.70
72338;DHT22;60294;64.134;-21.862;2023-04-19T00:10:29;9.60;88.40
72338;DHT22;60294;64.134;-21.862;2023-04-19T00:12:55;9.60;88.40
72338;DHT22;60294;64.134;-21.862;2023-04-19T00:15:21;9.60;88.40
72338;DHT22;60294;64.134;-21.862;2023-04-19T00:17:46;9.60;88.20
72338;DHT22;60294;64.134;-21.862;2023-04-19T00:20:12;9.70;88.30
72338;DHT22;60294;64.134;-21.862;2023-04-19T00:22:38;9.70;88.10
72338;DHT22;60294;64.134;-21.862;2023-04-19T00:25:05;9.70;87.90
72338;DHT22;60294;64.134;-21.862;2023-04-19T00:27:31;9.70;87.70
72338;DHT22;60294;64.134;-21.862;2023-04-19T00:29:57;9.70;87.60
72338;DHT22;60294;64.134;-21.862;2023-04-19T00:32:23;9.70;87.60
72338;DHT22;60294;64.134;-21.862;2023-04-19T00:34:49;9.80;87.60
72338;DHT22;60294;64.134;-21.862;2023-04-19T00:37:17;9.80;87.60
72338;DHT22;60294;64.134;-21.862;2023-04-19T00:39:43;9.80;87.40
72338;DHT22;60294;64.134;-21.862;2023-04-19T00:42:09;9.80;87.30
72338;DHT22;60294;64.134;-21.862;2023-04-19T00:44:34;9.80;87.20
72338;DHT22;60294;64.134;-21.862;2023-04-19T00:47:00;9.80;87.10
72338;DHT22;60294;64.134;-21.862;2023-04-19T00:49:27;9.90;87.30
72338;DHT22;60294;64.134;-21.862;2023-04-19T00:51:53;9.80;87.30
72338;DHT22;60294;64.134;-21.862;2023-04-19T00:54:19;9.80;87.40
72338;DHT22;60294;64.134;-21.862;2023-04-19T00:56:45;9.80;87.40
72338;DHT22;60294;64.134;-21.862;2023-04-19T00:59:13;9.80;87.50
72338;DHT22;60294;64.134;-21.862;2023-04-19T01:01:40;9.90;87.50
72338;DHT22;60294;64.134;-21.862;2023-04-19T01:04:06;9.80;87.50
72338;DHT22;60294;64.134;-21.862;2023-04-19T01:06:34;9.90;87.60
72338;DHT22;60294;64.134;-21.862;2023-04-19T01:09:00;9.90;87.20
72338;DHT22;60294;64.134;-21.862;2023-04-19T01:11:26;10.00;87.10
72338;DHT22;60294;64.134;-21.862;2023-04-19T01:13:54;9.90;87.00
72338;DHT22;60294;64.134;-21.862;2023-04-19T01:16:20;9.90;87.30
72338;DHT22;60294;64.134;-21.862;2023-04-19T01:18:46;9.80;87.20
72338;DHT22;60294;64.134;-21.862;2023-04-19T01:21:12;9.80;87.30
72338;DHT22;60294;64.134;-21.862;2023-04-19T01:23:38;9.80;87.30
72338;DHT22;60294;64.134;-21.862;2023-04-19T01:26:04;9.80;87.40
72338;DHT22;60294;64.134;-21.862;2023-04-19T01:28:30;9.80;87.40
72338;DHT22;60294;64.134;-21.862;2023-04-19T01:30:56;9.80;87.40
72338;DHT22;60294;64.134;-21.862;2023-04-19T01:33:22;9.80;87.40
72338;DHT22;60294;64.134;-21.862;2023-04-19T01:35:48;9.80;87.40
72338;DHT22;60294;64.134;-21.862;2023-04-19T01:38:15;9.80;87.50
72338;DHT22;60294;64.134;-21.862;2023-04-19T01:40:41;9.90;87.50
72338;DHT22;60294;64.134;-21.862;2023-04-19T01:43:07;9.90;87.20
72338;DHT22;60294;64.134;-21.862;2023-04-19T01:45:33;10.00;87.30
72338;DHT22;60294;64.134;-21.862;2023-04-19T01:48:01;10.00;87.20
72338;DHT22;60294;64.134;-21.862;2023-04-19T01:50:29;9.90;86.90
72338;DHT22;60294;64.134;-21.862;2023-04-19T01:52:55;10.00;87.20
72338;DHT22;60294;64.134;-21.862;2023-04-19T01:55:21;10.00;86.90
72338;DHT22;60294;64.134;-21.862;2023-04-19T01:57:47;10.00;87.00
72338;DHT22;60294;64.134;-21.862;2023-04-19T02:00:13;10.00;86.90
72338;DHT22;60294;64.134;-21.862;2023-04-19T02:02:40;10.00;86.80
72338;DHT22;60294;64.134;-21.862;2023-04-19T02:05:07;10.00;86.90
72338;DHT22;60294;64.134;-21.862;2023-04-19T02:07:33;10.00;86.90
72338;DHT22;60294;64.134;-21.862;2023-04-19T02:09:59;10.00;86.80
72338;DHT22;60294;64.134;-21.862;2023-04-19T02:12:26;9.90;86.70
72338;DHT22;60294;64.134;-21.862;2023-04-19T02:14:56;9.90;86.80
72338;DHT22;60294;64.134;-21.862;2023-04-19T02:17:25;9.90;86.80
72338;DHT22;60294;64.134;-21.862;2023-04-19T02:19:51;10.00;86.80
72338;DHT22;60294;64.134;-21.862;2023-04-19T02:22:18;10.00;86.50
72338;DHT22;60294;64.134;-21.862;2023-04-19T02:24:44;10.00;86.50
72338;DHT22;60294;64.134;-21.862;2023-04-19T02:27:10;10.00;86.30
72338;DHT22;60294;64.134;-21.862;2023-04-19T02:29:36;10.10;86.20
72338;DHT22;60294;64.134;-21.862;2023-04-19T02:32:03;10.10;86.10
72338;DHT22;60294;64.134;-21.862;2023-04-19T02:34:34;10.10;86.00
72338;DHT22;60294;64.134;-21.862;2023-04-19T02:37:00;10.10;85.90
72338;DHT22;60294;64.134;-21.862;2023-04-19T02:39:26;10.10;85.90
72338;DHT22;60294;64.134;-21.862;2023-04-19T02:41:52;10.10;85.80
72338;DHT22;60294;64.134;-21.862;2023-04-19T02:44:18;10.10;85.90
72338;DHT22;60294;64.134;-21.862;2023-04-19T02:46:54;10.10;85.90
72338;DHT22;60294;64.134;-21.862;2023-04-19T02:49:22;10.00;86.10
72338;DHT22;60294;64.134;-21.862;2023-04-19T02:51:49;10.10;86.00
72338;DHT22;60294;64.134;-21.862;2023-04-19T02:54:16;10.00;85.80
72338;DHT22;60294;64.134;-21.862;2023-04-19T02:56:42;10.10;85.80
72338;DHT22;60294;64.134;-21.862;2023-04-19T02:59:08;10.10;85.90
72338;DHT22;60294;64.134;-21.862;2023-04-19T03:01:34;10.00;86.10
72338;DHT22;60294;64.134;-21.862;2023-04-19T03:04:00;10.10;86.00
72338;DHT22;60294;64.134;-21.862;2023-04-19T03:06:25;10.00;86.10
72338;DHT22;60294;64.134;-21.862;2023-04-19T03:08:51;10.00;86.10
72338;DHT22;60294;64.134;-21.862;2023-04-19T03:11:17;10.10;86.40
72338;DHT22;60294;64.134;-21.862;2023-04-19T03:13:43;10.10;86.20
72338;DHT22;60294;64.134;-21.862;2023-04-19T03:16:12;10.10;86.30
72338;DHT22;60294;64.134;-21.862;2023-04-19T03:18:40;10.10;86.00
72338;DHT22;60294;64.134;-21.862;2023-04-19T03:21:08;10.10;85.90
72338;DHT22;60294;64.134;-21.862;2023-04-19T03:23:34;10.10;85.80
72338;DHT22;60294;64.134;-21.862;2023-04-19T03:26:00;10.10;85.70
72338;DHT22;60294;64.134;-21.862;2023-04-19T03:28:26;10.10;85.80
72338;DHT22;60294;64.134;-21.862;2023-04-19T03:30:52;10.10;85.50
72338;DHT22;60294;64.134;-21.862;2023-04-19T03:33:18;10.10;85.70
72338;DHT22;60294;64.134;-21.862;2023-04-19T03:35:49;10.10;85.60
72338;DHT22;60294;64.134;-21.862;2023-04-19T03:38:18;10.10;85.40
72338;DHT22;60294;64.134;-21.862;2023-04-19T03:40:47;10.20;85.40
72338;DHT22;60294;64.134;-21.862;2023-04-19T03:43:12;10.10;85.10
72338;DHT22;60294;64.134;-21.862;2023-04-19T03:45:38;10.10;85.30
72338;DHT22;60294;64.134;-21.862;2023-04-19T03:48:04;10.10;85.20
72338;DHT22;60294;64.134;-21.862;2023-04-19T03:50:30;10.10;85.20
72338;DHT22;60294;64.134;-21.862;2023-04-19T03:52:56;10.10;85.40
72338;DHT22;60294;64.134;-21.862;2023-04-19T03:55:22;10.00;85.40
72338;DHT22;60294;64.134;-21.862;2023-04-19T03:57:48;10.00;85.40
72338;DHT22;60294;64.134;-21.862;2023-04-19T04:00:14;10.10;85.40
72338;DHT22;60294;64.134;-21.862;2023-04-19T04:02:41;10.00;85.40
72338;DHT22;60294;64.134;-21.862;2023-04-19T04:05:07;10.10;85.40
72338;DHT22;60294;64.134;-21.862;2023-04-19T04:07:32;10.00;85.30
72338;DHT22;60294;64.134;-21.862;2023-04-19T04:09:58;10.00;85.40
72338;DHT22;60294;64.134;-21.862;2023-04-19T04:12:24;10.00;85.40
72338;DHT22;60294;64.134;-21.862;2023-04-19T04:14:50;10.10;85.60
72338;DHT22;60294;64.134;-21.862;2023-04-19T04:17:15;10.10;85.50
72338;DHT22;60294;64.134;-21.862;2023-04-19T04:19:41;10.10;85.30
72338;DHT22;60294;64.134;-21.862;2023-04-19T04:22:07;10.10;85.40
72338;DHT22;60294;64.134;-21.862;2023-04-19T04:24:40;10.10;85.30
72338;DHT22;60294;64.134;-21.862;2023-04-19T04:27:07;10.10;85.10
72338;DHT22;60294;64.134;-21.862;2023-04-19T04:29:38;10.10;85.10
72338;DHT22;60294;64.134;-21.862;2023-04-19T04:32:06;10.10;84.90
72338;DHT22;60294;64.134;-21.862;2023-04-19T04:34:35;10.10;84.80
72338;DHT22;60294;64.134;-21.862;2023-04-19T04:37:02;10.10;85.20
72338;DHT22;60294;64.134;-21.862;2023-04-19T04:39:29;10.00;85.10
72338;DHT22;60294;64.134;-21.862;2023-04-19T04:41:55;10.10;85.60
72338;DHT22;60294;64.134;-21.862;2023-04-19T04:44:22;10.00;85.60
72338;DHT22;60294;64.134;-21.862;2023-04-19T04:46:48;10.00;85.60
72338;DHT22;60294;64.134;-21.862;2023-04-19T04:49:14;9.90;86.00
72338;DHT22;60294;64.134;-21.862;2023-04-19T04:51:40;9.90;85.90
72338;DHT22;60294;64.134;-21.862;2023-04-19T04:54:06;10.00;86.20
72338;DHT22;60294;64.134;-21.862;2023-04-19T04:56:32;10.00;86.00
72338;DHT22;60294;64.134;-21.862;2023-04-19T04:58:57;9.90;85.90
72338;DHT22;60294;64.134;-21.862;2023-04-19T05:01:23;10.00;86.10
72338;DHT22;60294;64.134;-21.862;2023-04-19T05:03:50;10.00;86.00
72338;DHT22;60294;64.134;-21.862;2023-04-19T05:06:17;10.00;86.00
72338;DHT22;60294;64.134;-21.862;2023-04-19T05:08:43;9.80;86.20
72338;DHT22;60294;64.134;-21.862;2023-04-19T05:11:10;9.80;86.80
72338;DHT22;60294;64.134;-21.862;2023-04-19T05:13:35;9.80;86.90
72338;DHT22;60294;64.134;-21.862;2023-04-19T05:16:01;9.80;86.90
72338;DHT22;60294;64.134;-21.862;2023-04-19T05:18:27;9.80;86.90
72338;DHT22;60294;64.134;-21.862;2023-04-19T05:20:53;9.90;87.10
72338;DHT22;60294;64.134;-21.862;2023-04-19T05:23:19;9.90;86.90
72338;DHT22;60294;64.134;-21.862;2023-04-19T05:25:44;9.90;86.90
72338;DHT22;60294;64.134;-21.862;2023-04-19T05:28:10;9.90;86.80
72338;DHT22;60294;64.134;-21.862;2023-04-19T05:30:36;10.00;86.80
72338;DHT22;60294;64.134;-21.862;2023-04-19T05:33:02;10.00;86.80
72338;DHT22;60294;64.134;-21.862;2023-04-19T05:35:28;10.00;86.90
72338;DHT22;60294;64.134;-21.862;2023-04-19T05:37:54;10.10;86.80
72338;DHT22;60294;64.134;-21.862;2023-04-19T05:40:20;10.10;86.80
72338;DHT22;60294;64.134;-21.862;2023-04-19T05:42:48;10.10;86.70
72338;DHT22;60294;64.134;-21.862;2023-04-19T05:45:15;10.10;86.60
72338;DHT22;60294;64.134;-21.862;2023-04-19T05:47:41;10.10;86.50
72338;DHT22;60294;64.134;-21.862;2023-04-19T05:50:07;10.10;86.30
72338;DHT22;60294;64.134;-21.862;2023-04-19T05:52:33;10.10;86.30
72338;DHT22;60294;64.134;-21.862;2023-04-19T05:54:58;10.10;86.30
72338;DHT22;60294;64.134;-21.862;2023-04-19T05:57:24;10.20;86.40
72338;DHT22;60294;64.134;-21.862;2023-04-19T05:59:50;10.20;86.40
72338;DHT22;60294;64.134;-21.862;2023-04-19T06:02:16;10.20;86.30
72338;DHT22;60294;64.134;-21.862;2023-04-19T06:04:42;10.10;85.80
72338;DHT22;60294;64.134;-21.862;2023-04-19T06:07:08;10.10;86.50
72338;DHT22;60294;64.134;-21.862;2023-04-19T06:09:33;10.20;86.50
72338;DHT22;60294;64.134;-21.862;2023-04-19T06:11:59;10.30;86.60
72338;DHT22;60294;64.134;-21.862;2023-04-19T06:14:26;10.20;86.30
72338;DHT22;60294;64.134;-21.862;2023-04-19T06:16:53;10.20;86.60
72338;DHT22;60294;64.134;-21.862;2023-04-19T06:19:19;10.30;86.50
72338;DHT22;60294;64.134;-21.862;2023-04-19T06:21:46;10.30;86.50
72338;DHT22;60294;64.134;-21.862;2023-04-19T06:24:12;10.30;86.50
72338;DHT22;60294;64.134;-21.862;2023-04-19T06:26:38;10.30;86.40
72338;DHT22;60294;64.134;-21.862;2023-04-19T06:29:04;10.30;86.40
72338;DHT22;60294;64.134;-21.862;2023-04-19T06:31:32;10.30;86.10
72338;DHT22;60294;64.134;-21.862;2023-04-19T06:33:58;10.30;86.10
72338;DHT22;60294;64.134;-21.862;2023-04-19T06:36:23;10.30;86.40
72338;DHT22;60294;64.134;-21.862;2023-04-19T06:38:50;10.40;86.30
72338;DHT22;60294;64.134;-21.862;2023-04-19T06:41:15;10.30;86.10
72338;DHT22;60294;64.134;-21.862;2023-04-19T06:43:42;10.40;86.30
72338;DHT22;60294;64.134;-21.862;2023-04-19T06:46:09;10.30;86.20
72338;DHT22;60294;64.134;-21.862;2023-04-19T06:48:35;10.30;86.40
72338;DHT22;60294;64.134;-21.862;2023-04-19T06:51:01;10.30;86.50
72338;DHT22;60294;64.134;-21.862;2023-04-19T06:53:27;10.30;86.70
72338;DHT22;60294;64.134;-21.862;2023-04-19T06:55:59;10.30;86.70
72338;DHT22;60294;64.134;-21.862;2023-04-19T06:58:27;10.30;86.60
72338;DHT22;60294;64.134;-21.862;2023-04-19T07:00:53;10.30;86.70
72338;DHT22;60294;64.134;-21.862;2023-04-19T07:03:20;10.30;86.80
72338;DHT22;60294;64.134;-21.862;2023-04-19T07:05:46;10.40;86.70
72338;DHT22;60294;64.134;-21.862;2023-04-19T07:08:12;10.40;86.70
72338;DHT22;60294;64.134;-21.862;2023-04-19T07:10:38;10.50;86.60
72338;DHT22;60294;64.134;-21.862;2023-04-19T07:13:04;10.50;86.50
72338;DHT22;60294;64.134;-21.862;2023-04-19T07:15:29;10.50;86.50
72338;DHT22;60294;64.134;-21.862;2023-04-19T07:17:56;10.50;86.40
72338;DHT22;60294;64.134;-21.862;2023-04-19T07:20:22;10.60;86.40
72338;DHT22;60294;64.134;-21.862;2023-04-19T07:22:47;10.60;86.40
72338;DHT22;60294;64.134;-21.862;2023-04-19T07:25:13;10.60;86.20
72338;DHT22;60294;64.134;-21.862;2023-04-19T07:27:39;10.60;86.20
72338;DHT22;60294;64.134;-21.862;2023-04-19T07:30:06;10.70;86.20
72338;DHT22;60294;64.134;-21.862;2023-04-19T07:32:32;10.60;85.90
72338;DHT22;60294;64.134;-21.862;2023-04-19T07:34:57;10.70;86.20
72338;DHT22;60294;64.134;-21.862;2023-04-19T07:37:23;10.70;86.20
72338;DHT22;60294;64.134;-21.862;2023-04-19T07:39:49;10.80;86.10
72338;DHT22;60294;64.134;-21.862;2023-04-19T07:42:15;10.80;86.00
72338;DHT22;60294;64.134;-21.862;2023-04-19T07:44:41;10.80;85.80
72338;DHT22;60294;64.134;-21.862;2023-04-19T07:47:07;10.70;85.90
72338;DHT22;60294;64.134;-21.862;2023-04-19T07:49:33;10.70;86.00
72338;DHT22;60294;64.134;-21.862;2023-04-19T07:52:02;10.70;85.90
72338;DHT22;60294;64.134;-21.862;2023-04-19T07:54:31;10.70;85.80
72338;DHT22;60294;64.134;-21.862;2023-04-19T07:56:57;10.70;85.60
72338;DHT22;60294;64.134;-21.862;2023-04-19T07:59:23;10.60;86.10
72338;DHT22;60294;64.134;-21.862;2023-04-19T08:01:49;10.70;86.10
72338;DHT22;60294;64.134;-21.862;2023-04-19T08:04:15;10.80;86.10
72338;DHT22;60294;64.134;-21.862;2023-04-19T08:06:44;10.80;85.70
72338;DHT22;60294;64.134;-21.862;2023-04-19T08:09:10;10.80;86.20
72338;DHT22;60294;64.134;-21.862;2023-04-19T08:11:36;11.00;86.20
72338;DHT22;60294;64.134;-21.862;2023-04-19T08:14:02;11.00;85.90
72338;DHT22;60294;64.134;-21.862;2023-04-19T08:16:28;10.90;85.20
72338;DHT22;60294;64.134;-21.862;2023-04-19T08:18:54;11.10;85.60
72338;DHT22;60294;64.134;-21.862;2023-04-19T08:21:20;11.10;85.50
72338;DHT22;60294;64.134;-21.862;2023-04-19T08:23:46;11.20;85.30
72338;DHT22;60294;64.134;-21.862;2023-04-19T08:26:12;11.20;85.00
72338;DHT22;60294;64.134;-21.862;2023-04-19T08:28:37;11.30;84.50
72338;DHT22;60294;64.134;-21.862;2023-04-19T08:31:07;11.30;84.20
72338;DHT22;60294;64.134;-21.862;2023-04-19T08:33:33;11.40;84.20
72338;DHT22;60294;64.134;-21.862;2023-04-19T08:35:59;11.50;84.40
72338;DHT22;60294;64.134;-21.862;2023-04-19T08:38:25;11.60;83.30
72338;DHT22;60294;64.134;-21.862;2023-04-19T08:40:52;11.60;83.90
72338;DHT22;60294;64.134;-21.862;2023-04-19T08:43:20;11.60;83.50
72338;DHT22;60294;64.134;-21.862;2023-04-19T08:45:50;11.60;82.90
72338;DHT22;60294;64.134;-21.862;2023-04-19T08:48:16;11.70;83.50
72338;DHT22;60294;64.134;-21.862;2023-04-19T08:50:43;11.70;83.10
72338;DHT22;60294;64.134;-21.862;2023-04-19T08:53:13;11.60;82.90
72338;DHT22;60294;64.134;-21.862;2023-04-19T08:55:40;11.60;82.90
72338;DHT22;60294;64.134;-21.862;2023-04-19T08:58:07;11.60;82.60
72338;DHT22;60294;64.134;-21.862;2023-04-19T09:00:36;11.70;82.60
72338;DHT22;60294;64.134;-21.862;2023-04-19T09:03:02;11.80;82.30
72338;DHT22;60294;64.134;-21.862;2023-04-19T09:05:28;11.90;82.40
72338;DHT22;60294;64.134;-21.862;2023-04-19T09:07:54;11.90;82.60
72338;DHT22;60294;64.134;-21.862;2023-04-19T09:10:51;12.10;82.40
72338;DHT22;60294;64.134;-21.862;2023-04-19T09:13:17;12.00;81.10
72338;DHT22;60294;64.134;-21.862;2023-04-19T09:15:43;11.80;81.70
72338;DHT22;60294;64.134;-21.862;2023-04-19T09:18:10;12.10;82.20
72338;DHT22;60294;64.134;-21.862;2023-04-19T09:20:38;12.00;81.30
72338;DHT22;60294;64.134;-21.862;2023-04-19T09:23:05;12.10;81.50
72338;DHT22;60294;64.134;-21.862;2023-04-19T09:25:31;12.10;81.50
72338;DHT22;60294;64.134;-21.862;2023-04-19T09:28:14;12.10;81.40
72338;DHT22;60294;64.134;-21.862;2023-04-19T09:30:40;12.10;81.00
72338;DHT22;60294;64.134;-21.862;2023-04-19T09:33:07;12.10;81.20
72338;DHT22;60294;64.134;-21.862;2023-04-19T09:35:45;12.20;81.50
72338;DHT22;60294;64.134;-21.862;2023-04-19T09:38:15;12.30;81.20
72338;DHT22;60294;64.134;-21.862;2023-04-19T09:40:41;12.40;81.30
72338;DHT22;60294;64.134;-21.862;2023-04-19T09:43:08;12.10;80.90
72338;DHT22;60294;64.134;-21.862;2023-04-19T09:45:45;12.10;81.30
72338;DHT22;60294;64.134;-21.862;2023-04-19T09:48:12;12.10;81.90
72338;DHT22;60294;64.134;-21.862;2023-04-19T09:50:53;11.70;82.00
72338;DHT22;60294;64.134;-21.862;2023-04-19T09:53:21;11.80;82.60
72338;DHT22;60294;64.134;-21.862;2023-04-19T09:55:47;11.80;82.80
72338;DHT22;60294;64.134;-21.862;2023-04-19T09:58:14;11.70;83.20
72338;DHT22;60294;64.134;-21.862;2023-04-19T10:00:40;11.60;83.60
72338;DHT22;60294;64.134;-21.862;2023-04-19T10:03:09;11.60;84.00
72338;DHT22;60294;64.134;-21.862;2023-04-19T10:05:39;11.60;83.90
72338;DHT22;60294;64.134;-21.862;2023-04-19T10:08:12;11.60;83.90
72338;DHT22;60294;64.134;-21.862;2023-04-19T10:10:39;11.50;84.00
72338;DHT22;60294;64.134;-21.862;2023-04-19T10:13:09;11.60;84.20
72338;DHT22;60294;64.134;-21.862;2023-04-19T10:15:36;11.60;83.80
72338;DHT22;60294;64.134;-21.862;2023-04-19T10:18:05;11.50;84.00
72338;DHT22;60294;64.134;-21.862;2023-04-19T10:20:46;11.40;84.70
72338;DHT22;60294;64.134;-21.862;2023-04-19T10:23:15;11.40;85.00
72338;DHT22;60294;64.134;-21.862;2023-04-19T10:25:45;11.30;85.40
72338;DHT22;60294;64.134;-21.862;2023-04-19T10:28:12;11.20;86.00
72338;DHT22;60294;64.134;-21.862;2023-04-19T10:30:57;11.30;85.90
72338;DHT22;60294;64.134;-21.862;2023-04-19T10:33:33;11.40;85.70
72338;DHT22;60294;64.134;-21.862;2023-04-19T10:36:00;11.40;85.70
72338;DHT22;60294;64.134;-21.862;2023-04-19T10:38:39;11.30;85.50
72338;DHT22;60294;64.134;-21.862;2023-04-19T10:41:09;11.40;85.50
72338;DHT22;60294;64.134;-21.862;2023-04-19T10:43:47;11.40;85.40
72338;DHT22;60294;64.134;-21.862;2023-04-19T10:49:01;11.40;86.20
72338;DHT22;60294;64.134;-21.862;2023-04-19T10:51:32;11.50;86.30
72338;DHT22;60294;64.134;-21.862;2023-04-19T10:54:03;11.40;86.00
72338;DHT22;60294;64.134;-21.862;2023-04-19T11:01:49;11.40;86.20
72338;DHT22;60294;64.134;-21.862;2023-04-19T11:04:18;11.30;85.90
72338;DHT22;60294;64.134;-21.862;2023-04-19T11:09:23;11.30;86.30
72338;DHT22;60294;64.134;-21.862;2023-04-19T11:11:50;11.30;86.60
72338;DHT22;60294;64.134;-21.862;2023-04-19T11:14:16;11.40;86.70
72338;DHT22;60294;64.134;-21.862;2023-04-19T11:16:42;11.30;86.70
72338;DHT22;60294;64.134;-21.862;2023-04-19T11:19:08;11.30;86.60
72338;DHT22;60294;64.134;-21.862;2023-04-19T11:21:39;11.20;86.80
72338;DHT22;60294;64.134;-21.862;2023-04-19T11:24:09;11.10;87.00
72338;DHT22;60294;64.134;-21.862;2023-04-19T11:26:35;11.40;87.20
72338;DHT22;60294;64.134;-21.862;2023-04-19T11:29:01;11.60;86.30
72338;DHT22;60294;64.134;-21.862;2023-04-19T11:31:27;11.60;85.10
72338;DHT22;60294;64.134;-21.862;2023-04-19T11:33:53;11.70;85.10
72338;DHT22;60294;64.134;-21.862;2023-04-19T11:36:19;11.70;84.90
72338;DHT22;60294;64.134;-21.862;2023-04-19T11:38:48;11.60;85.30
72338;DHT22;60294;64.134;-21.862;2023-04-19T11:41:14;11.60;85.70
72338;DHT22;60294;64.134;-21.862;2023-04-19T11:43:40;11.50;85.80
72338;DHT22;60294;64.134;-21.862;2023-04-19T11:46:10;11.40;85.70
72338;DHT22;60294;64.134;-21.862;2023-04-19T11:48:37;11.50;86.00
72338;DHT22;60294;64.134;-21.862;2023-04-19T11:51:04;11.50;86.70
72338;DHT22;60294;64.134;-21.862;2023-04-19T11:53:31;11.40;86.60
72338;DHT22;60294;64.134;-21.862;2023-04-19T11:56:05;11.40;87.20
72338;DHT22;60294;64.134;-21.862;2023-04-19T11:58:42;11.40;87.20
72338;DHT22;60294;64.134;-21.862;2023-04-19T12:01:13;11.50;87.20
72338;DHT22;60294;64.134;-21.862;2023-04-19T12:03:44;11.40;86.70
72338;DHT22;60294;64.134;-21.862;2023-04-19T12:08:48;11.40;87.10
72338;DHT22;60294;64.134;-21.862;2023-04-19T12:11:16;11.50;87.00
72338;DHT22;60294;64.134;-21.862;2023-04-19T12:13:44;11.60;86.90
72338;DHT22;60294;64.134;-21.862;2023-04-19T12:16:11;11.60;86.40
72338;DHT22;60294;64.134;-21.862;2023-04-19T12:18:48;11.60;86.20
72338;DHT22;60294;64.134;-21.862;2023-04-19T12:21:27;11.60;86.10
72338;DHT22;60294;64.134;-21.862;2023-04-19T12:23:57;11.60;85.80
72338;DHT22;60294;64.134;-21.862;2023-04-19T12:26:25;11.70;86.10
72338;DHT22;60294;64.134;-21.862;2023-04-19T12:28:52;11.60;85.50
72338;DHT22;60294;64.134;-21.862;2023-04-19T12:31:18;11.50;86.00
72338;DHT22;60294;64.134;-21.862;2023-04-19T12:33:45;11.40;86.50
72338;DHT22;60294;64.134;-21.862;2023-04-19T12:36:11;11.40;86.70
72338;DHT22;60294;64.134;-21.862;2023-04-19T12:38:37;11.40;86.50
72338;DHT22;60294;64.134;-21.862;2023-04-19T12:41:03;11.30;86.50
72338;DHT22;60294;64.134;-21.862;2023-04-19T12:43:29;11.30;85.40
72338;DHT22;60294;64.134;-21.862;2023-04-19T12:45:56;11.50;85.00
72338;DHT22;60294;64.134;-21.862;2023-04-19T12:48:23;11.50;84.30
72338;DHT22;60294;64.134;-21.862;2023-04-19T12:50:49;11.50;84.00
72338;DHT22;60294;64.134;-21.862;2023-04-19T12:53:15;11.60;84.50
72338;DHT22;60294;64.134;-21.862;2023-04-19T12:55:41;11.60;83.80
72338;DHT22;60294;64.134;-21.862;2023-04-19T12:58:12;11.60;83.40
72338;DHT22;60294;64.134;-21.862;2023-04-19T13:00:38;11.40;83.70
72338;DHT22;60294;64.134;-21.862;2023-04-19T13:03:04;11.50;83.70
72338;DHT22;60294;64.134;-21.862;2023-04-19T13:05:30;11.60;83.20
72338;DHT22;60294;64.134;-21.862;2023-04-19T13:07:56;11.50;83.70
72338;DHT22;60294;64.134;-21.862;2023-04-19T13:10:21;11.60;83.40
72338;DHT22;60294;64.134;-21.862;2023-04-19T13:12:47;11.50;83.50
72338;DHT22;60294;64.134;-21.862;2023-04-19T13:15:13;11.60;83.40
72338;DHT22;60294;64.134;-21.862;2023-04-19T13:17:39;11.70;83.30
72338;DHT22;60294;64.134;-21.862;2023-04-19T13:20:05;11.80;83.10
72338;DHT22;60294;64.134;-21.862;2023-04-19T13:22:31;11.80;82.90
72338;DHT22;60294;64.134;-21.862;2023-04-19T13:24:57;11.80;83.50
72338;DHT22;60294;64.134;-21.862;2023-04-19T13:27:23;11.90;82.80
72338;DHT22;60294;64.134;-21.862;2023-04-19T13:29:49;11.80;83.10
72338;DHT22;60294;64.134;-21.862;2023-04-19T13:32:15;11.80;82.80
72338;DHT22;60294;64.134;-21.862;2023-04-19T13:34:41;11.80;83.00
72338;DHT22;60294;64.134;-21.862;2023-04-19T13:37:07;11.90;83.30
72338;DHT22;60294;64.134;-21.862;2023-04-19T13:39:33;12.00;83.00
72338;DHT22;60294;64.134;-21.862;2023-04-19T13:41:59;12.00;81.90
72338;DHT22;60294;64.134;-21.862;2023-04-19T13:44:27;12.30;82.70
72338;DHT22;60294;64.134;-21.862;2023-04-19T13:46:53;12.60;81.40
72338;DHT22;60294;64.134;-21.862;2023-04-19T13:49:18;12.60;80.90
72338;DHT22;60294;64.134;-21.862;2023-04-19T13:51:44;12.60;80.90
72338;DHT22;60294;64.134;-21.862;2023-04-19T13:54:10;12.70;80.50
72338;DHT22;60294;64.134;-21.862;2023-04-19T13:56:36;12.80;80.30
72338;DHT22;60294;64.134;-21.862;2023-04-19T13:59:02;12.60;79.30
72338;DHT22;60294;64.134;-21.862;2023-04-19T14:01:28;12.80;79.50
72338;DHT22;60294;64.134;-21.862;2023-04-19T14:03:54;12.80;78.80
72338;DHT22;60294;64.134;-21.862;2023-04-19T14:06:20;12.60;79.10
72338;DHT22;60294;64.134;-21.862;2023-04-19T14:08:48;12.70;79.10
72338;DHT22;60294;64.134;-21.862;2023-04-19T14:11:14;12.90;78.70
72338;DHT22;60294;64.134;-21.862;2023-04-19T14:13:39;13.10;77.60
72338;DHT22;60294;64.134;-21.862;2023-04-19T14:16:06;13.30;77.10
72338;DHT22;60294;64.134;-21.862;2023-04-19T14:18:32;13.10;76.90
72338;DHT22;60294;64.134;-21.862;2023-04-19T14:20:58;13.10;77.00
72338;DHT22;60294;64.134;-21.862;2023-04-19T14:23:24;13.20;78.20
72338;DHT22;60294;64.134;-21.862;2023-04-19T14:25:50;13.10;78.30
72338;DHT22;60294;64.134;-21.862;2023-04-19T14:28:15;13.10;77.60
72338;DHT22;60294;64.134;-21.862;2023-04-19T14:30:41;13.20;77.20
72338;DHT22;60294;64.134;-21.862;2023-04-19T14:33:07;13.40;77.00
72338;DHT22;60294;64.134;-21.862;2023-04-19T14:35:33;13.60;75.70
72338;DHT22;60294;64.134;-21.862;2023-04-19T14:37:59;13.70;74.80
72338;DHT22;60294;64.134;-21.862;2023-04-19T14:40:25;13.80;74.80
72338;DHT22;60294;64.134;-21.862;2023-04-19T14:42:51;13.80;74.60
72338;DHT22;60294;64.134;-21.862;2023-04-19T14:45:17;13.80;73.50
72338;DHT22;60294;64.134;-21.862;2023-04-19T14:47:43;13.80;74.90
72338;DHT22;60294;64.134;-21.862;2023-04-19T14:50:09;14.10;74.90
72338;DHT22;60294;64.134;-21.862;2023-04-19T14:52:35;14.30;73.40
72338;DHT22;60294;64.134;-21.862;2023-04-19T14:55:01;14.20;73.50
72338;DHT22;60294;64.134;-21.862;2023-04-19T14:57:27;14.50;73.50
72338;DHT22;60294;64.134;-21.862;2023-04-19T14:59:54;14.10;72.50
72338;DHT22;60294;64.134;-21.862;2023-04-19T15:02:26;14.10;74.00
72338;DHT22;60294;64.134;-21.862;2023-04-19T15:04:52;14.20;74.30
72338;DHT22;60294;64.134;-21.862;2023-04-19T15:07:18;14.40;73.00
72338;DHT22;60294;64.134;-21.862;2023-04-19T15:09:44;14.20;73.90
72338;DHT22;60294;64.134;-21.862;2023-04-19T15:12:10;14.40;73.30
72338;DHT22;60294;64.134;-21.862;2023-04-19T15:14:37;14.40;73.10
72338;DHT22;60294;64.134;-21.862;2023-04-19T15:17:03;14.30;73.30